Ross, Iowa
Current Conditions -  °F | °C
As of 7:55 AM on Saturday 22 Nov 2014 (Local Time) from KADU Reporting Station
Haze Haze  
Wind Chill: 30°   Ceiling: 400
Heat Index: 37°   Visibility: 1.5mi
Dew Point: 34°   Wind: 10mph
Humidity: 87%   Direction: 190°S
Pressure: 29.86"   Gusts: NA
Location:  41.7468°N, 94.8805°W
Report Text: KADU 221355Z AUTO 19009KT 1 1/2SM BR BKN004 03/01 A2986 RMK AO2
Loading
Personal Weather Stations






























Interactive Weather Map New forecast layout! Learn more

10-Day Weather Forecast

Advertisements
Track Severe Weather on mobile